Bischofshofen, Autriche

18:05 CET le 23 novembre 2014 (GMT +0100)
Muehlach am Hochkoenig | Change Station
CLOSE
Current Station
Stations météorologiques personnelles
Location: Mühlbach Am Hochkönig, SALZBURG
Altitude: 2785 ft
Stations météo à proximité

Alt. 2785 ft 47.38 °N, 13.13 °E | Updated 9 seconds ago

Fog
Brouillard
37.9 ° F
Paraît 38 ° F
N
0.4
Vent Variable Vent de ONO
Gusts 2.5 mph

Aujourd'hui
Haut(e) -- | Bas -- ° F
--% Risque de précip.
Hier
Haut(e) -- | Bas -- ° F
Precip. -- pouce
7:22 AM 4:23 PM
Nouvelle lune, 2% visible
Pression 30.21 pouce
Visibilité 0.4 Miles terrestres
Nuages
Refroidissement éolien 38 ° F
Point de rosée 34 ° F
Humidité 87%
Précipitations 0.00 pouce
Profondeur de la couche neigeuse Non disponible.
UV 0.0 sur 12
Pollen Non disponible.
Qualité de l'air Non disponible.
Flu Activity Non disponible.
METAR LOWS 231650Z 19003KT 160V220 0600 R15/0800N R33/0750N FG VV002 04/04 Q1023 TEMPO 0500

More Conditions Fewer Conditions

Pression 30.21 pouce
Visibilité 0.4 Miles terrestres
Nuages
Refroidissement éolien 38 ° F
Point de rosée 34 ° F
Humidité 87%
Précipitations 0.00 pouce
Profondeur de la couche neigeuse Non disponible.
UV 0.0 sur 12
Pollen Non disponible.
Qualité de l'air Non disponible.
Flu Activity Non disponible.
METAR LOWS 231650Z 19003KT 160V220 0600 R15/0800N R33/0750N FG VV002 04/04 Q1023 TEMPO 0500

More Conditions Fewer Conditions

10-Day Weather Forecast

Almanac

Astronomie

Nov. 23, 2014 Lever Coucher
Temps réel
Crépuscule civil
Crépuscule nautique
Crépuscule astronomique
Lune
Durée de lumière visible
Longueur du jour
Tomorrow will be .
, % of the Moon is Illuminated

Extrêmes aujourd'hui

Country Highs Country Lows

Community

WunderPhotos

Upload Photos

1,773,098 Photos téléchargées !

WunderBlogs® & News

Nearby

Qualité de l'air

  Qualité de l'air Indice de la qualité de l'air Polluant
Not available.

Épaisseur de neige

Station Depth Altitude

Activité sismique

Ville Distance Mag. Time & Date
Minimum magnitude displayed is 2.5.

Températures des eaux côtières

Lieu Température

Stations météo à proximité